sensor_id;sensor_type;location;lat;lon;timestamp;P1;durP1;ratioP1;P2;durP2;ratioP2
42124;SDS011;27787;44.594;11.046;2023-11-21T00:01:51;52.17;;;27.63;;
42124;SDS011;27787;44.594;11.046;2023-11-21T00:04:35;54.88;;;28.08;;
42124;SDS011;27787;44.594;11.046;2023-11-21T00:07:20;52.63;;;27.33;;
42124;SDS011;27787;44.594;11.046;2023-11-21T00:10:05;53.13;;;27.60;;
42124;SDS011;27787;44.594;11.046;2023-11-21T00:12:50;55.97;;;28.17;;
42124;SDS011;27787;44.594;11.046;2023-11-21T00:15:34;58.70;;;27.98;;
42124;SDS011;27787;44.594;11.046;2023-11-21T00:18:18;52.50;;;27.60;;
42124;SDS011;27787;44.594;11.046;2023-11-21T00:21:02;55.88;;;27.13;;
42124;SDS011;27787;44.594;11.046;2023-11-21T00:23:47;53.58;;;28.10;;
42124;SDS011;27787;44.594;11.046;2023-11-21T00:26:32;58.07;;;26.57;;
42124;SDS011;27787;44.594;11.046;2023-11-21T00:29:21;55.28;;;26.77;;
42124;SDS011;27787;44.594;11.046;2023-11-21T00:32:05;54.80;;;28.20;;
42124;SDS011;27787;44.594;11.046;2023-11-21T00:34:50;56.35;;;30.30;;
42124;SDS011;27787;44.594;11.046;2023-11-21T00:37:34;56.35;;;29.35;;
42124;SDS011;27787;44.594;11.046;2023-11-21T00:40:18;59.55;;;29.65;;
42124;SDS011;27787;44.594;11.046;2023-11-21T00:43:06;53.92;;;27.67;;
42124;SDS011;27787;44.594;11.046;2023-11-21T00:45:50;53.10;;;28.70;;
42124;SDS011;27787;44.594;11.046;2023-11-21T00:48:35;59.05;;;28.52;;
42124;SDS011;27787;44.594;11.046;2023-11-21T00:51:19;56.47;;;28.92;;
42124;SDS011;27787;44.594;11.046;2023-11-21T00:54:03;58.45;;;29.13;;
42124;SDS011;27787;44.594;11.046;2023-11-21T00:56:47;61.42;;;29.02;;
42124;SDS011;27787;44.594;11.046;2023-11-21T00:59:32;58.13;;;29.25;;
42124;SDS011;27787;44.594;11.046;2023-11-21T01:02:16;57.55;;;29.05;;
42124;SDS011;27787;44.594;11.046;2023-11-21T01:05:00;55.80;;;27.92;;
42124;SDS011;27787;44.594;11.046;2023-11-21T01:07:44;53.72;;;27.90;;
42124;SDS011;27787;44.594;11.046;2023-11-21T01:10:28;52.50;;;29.05;;
42124;SDS011;27787;44.594;11.046;2023-11-21T01:13:13;51.20;;;28.27;;
42124;SDS011;27787;44.594;11.046;2023-11-21T01:15:58;56.13;;;28.23;;
42124;SDS011;27787;44.594;11.046;2023-11-21T01:18:42;49.20;;;26.30;;
42124;SDS011;27787;44.594;11.046;2023-11-21T01:21:27;50.35;;;25.70;;
42124;SDS011;27787;44.594;11.046;2023-11-21T01:24:12;40.03;;;23.67;;
42124;SDS011;27787;44.594;11.046;2023-11-21T01:26:56;49.90;;;26.17;;
42124;SDS011;27787;44.594;11.046;2023-11-21T01:29:41;44.27;;;23.67;;
42124;SDS011;27787;44.594;11.046;2023-11-21T01:32:25;47.30;;;24.83;;
42124;SDS011;27787;44.594;11.046;2023-11-21T01:35:10;42.45;;;23.45;;
42124;SDS011;27787;44.594;11.046;2023-11-21T01:37:54;53.85;;;24.65;;
42124;SDS011;27787;44.594;11.046;2023-11-21T01:40:38;45.33;;;22.98;;
42124;SDS011;27787;44.594;11.046;2023-11-21T01:43:22;46.78;;;23.60;;
42124;SDS011;27787;44.594;11.046;2023-11-21T01:46:08;47.58;;;25.80;;
42124;SDS011;27787;44.594;11.046;2023-11-21T01:48:53;50.60;;;26.77;;
42124;SDS011;27787;44.594;11.046;2023-11-21T01:51:38;46.78;;;25.00;;
42124;SDS011;27787;44.594;11.046;2023-11-21T01:54:23;54.45;;;27.88;;
42124;SDS011;27787;44.594;11.046;2023-11-21T01:57:07;53.75;;;27.42;;
42124;SDS011;27787;44.594;11.046;2023-11-21T01:59:52;52.33;;;25.90;;
42124;SDS011;27787;44.594;11.046;2023-11-21T02:02:38;50.38;;;28.02;;
42124;SDS011;27787;44.594;11.046;2023-11-21T02:05:22;63.80;;;29.73;;
42124;SDS011;27787;44.594;11.046;2023-11-21T02:08:06;60.33;;;31.17;;
42124;SDS011;27787;44.594;11.046;2023-11-21T02:10:53;58.70;;;29.08;;
42124;SDS011;27787;44.594;11.046;2023-11-21T02:13:37;57.22;;;29.42;;
42124;SDS011;27787;44.594;11.046;2023-11-21T02:16:21;58.45;;;30.33;;
42124;SDS011;27787;44.594;11.046;2023-11-21T02:19:06;58.80;;;30.20;;
42124;SDS011;27787;44.594;11.046;2023-11-21T02:21:53;62.05;;;29.75;;
42124;SDS011;27787;44.594;11.046;2023-11-21T02:24:40;57.90;;;28.80;;
42124;SDS011;27787;44.594;11.046;2023-11-21T02:27:26;53.00;;;29.15;;
42124;SDS011;27787;44.594;11.046;2023-11-21T02:30:11;61.20;;;28.95;;
42124;SDS011;27787;44.594;11.046;2023-11-21T02:32:57;53.65;;;29.38;;
42124;SDS011;27787;44.594;11.046;2023-11-21T02:35:43;56.22;;;30.42;;
42124;SDS011;27787;44.594;11.046;2023-11-21T02:38:27;53.35;;;29.05;;
42124;SDS011;27787;44.594;11.046;2023-11-21T02:41:12;57.28;;;31.00;;
42124;SDS011;27787;44.594;11.046;2023-11-21T02:43:56;64.13;;;31.08;;
42124;SDS011;27787;44.594;11.046;2023-11-21T02:46:39;58.40;;;30.15;;
42124;SDS011;27787;44.594;11.046;2023-11-21T02:49:23;54.83;;;28.50;;
42124;SDS011;27787;44.594;11.046;2023-11-21T02:52:08;54.65;;;28.42;;
42124;SDS011;27787;44.594;11.046;2023-11-21T02:54:52;59.78;;;30.55;;
42124;SDS011;27787;44.594;11.046;2023-11-21T02:57:37;54.97;;;28.77;;
42124;SDS011;27787;44.594;11.046;2023-11-21T03:00:21;65.13;;;31.23;;
42124;SDS011;27787;44.594;11.046;2023-11-21T03:03:10;59.03;;;30.02;;
42124;SDS011;27787;44.594;11.046;2023-11-21T03:05:53;62.55;;;30.35;;
42124;SDS011;27787;44.594;11.046;2023-11-21T03:08:37;55.75;;;29.85;;
42124;SDS011;27787;44.594;11.046;2023-11-21T03:11:22;60.13;;;31.15;;
42124;SDS011;27787;44.594;11.046;2023-11-21T03:14:06;59.10;;;30.45;;
42124;SDS011;27787;44.594;11.046;2023-11-21T03:16:51;58.05;;;29.48;;
42124;SDS011;27787;44.594;11.046;2023-11-21T03:19:35;53.42;;;29.10;;
42124;SDS011;27787;44.594;11.046;2023-11-21T03:22:19;57.28;;;30.10;;
42124;SDS011;27787;44.594;11.046;2023-11-21T03:25:04;55.58;;;29.67;;
42124;SDS011;27787;44.594;11.046;2023-11-21T03:27:49;55.80;;;29.13;;
42124;SDS011;27787;44.594;11.046;2023-11-21T03:30:33;58.78;;;29.35;;
42124;SDS011;27787;44.594;11.046;2023-11-21T03:33:17;52.28;;;28.52;;
42124;SDS011;27787;44.594;11.046;2023-11-21T03:36:01;62.42;;;29.20;;
42124;SDS011;27787;44.594;11.046;2023-11-21T03:38:47;58.20;;;29.20;;
42124;SDS011;27787;44.594;11.046;2023-11-21T03:41:32;61.50;;;29.98;;
42124;SDS011;27787;44.594;11.046;2023-11-21T03:44:17;57.17;;;30.85;;
42124;SDS011;27787;44.594;11.046;2023-11-21T03:47:03;63.92;;;30.25;;
42124;SDS011;27787;44.594;11.046;2023-11-21T03:49:47;53.63;;;27.52;;
42124;SDS011;27787;44.594;11.046;2023-11-21T03:52:33;57.67;;;29.65;;
42124;SDS011;27787;44.594;11.046;2023-11-21T03:55:19;54.03;;;29.42;;
42124;SDS011;27787;44.594;11.046;2023-11-21T03:58:03;57.83;;;29.38;;
42124;SDS011;27787;44.594;11.046;2023-11-21T04:00:47;52.58;;;29.50;;
42124;SDS011;27787;44.594;11.046;2023-11-21T04:03:34;55.10;;;30.30;;
42124;SDS011;27787;44.594;11.046;2023-11-21T04:06:19;58.38;;;29.67;;
42124;SDS011;27787;44.594;11.046;2023-11-21T04:09:03;55.50;;;30.60;;
42124;SDS011;27787;44.594;11.046;2023-11-21T04:11:48;54.40;;;29.73;;
42124;SDS011;27787;44.594;11.046;2023-11-21T04:14:32;48.92;;;27.73;;
42124;SDS011;27787;44.594;11.046;2023-11-21T04:17:19;54.60;;;29.02;;
42124;SDS011;27787;44.594;11.046;2023-11-21T04:20:04;56.28;;;29.17;;
42124;SDS011;27787;44.594;11.046;2023-11-21T04:22:53;58.78;;;30.30;;
42124;SDS011;27787;44.594;11.046;2023-11-21T04:25:37;59.65;;;29.17;;
42124;SDS011;27787;44.594;11.046;2023-11-21T04:28:21;54.95;;;29.98;;
42124;SDS011;27787;44.594;11.046;2023-11-21T04:31:06;55.85;;;30.10;;
42124;SDS011;27787;44.594;11.046;2023-11-21T04:33:50;58.78;;;29.65;;
42124;SDS011;27787;44.594;11.046;2023-11-21T04:36:35;58.78;;;30.30;;
42124;SDS011;27787;44.594;11.046;2023-11-21T04:39:19;56.03;;;29.58;;
42124;SDS011;27787;44.594;11.046;2023-11-21T04:42:04;53.80;;;30.13;;
42124;SDS011;27787;44.594;11.046;2023-11-21T04:44:48;58.90;;;31.23;;
42124;SDS011;27787;44.594;11.046;2023-11-21T04:47:33;56.88;;;31.48;;
42124;SDS011;27787;44.594;11.046;2023-11-21T04:50:17;50.75;;;29.25;;
42124;SDS011;27787;44.594;11.046;2023-11-21T04:53:01;54.35;;;29.27;;
42124;SDS011;27787;44.594;11.046;2023-11-21T04:55:45;66.60;;;32.55;;
42124;SDS011;27787;44.594;11.046;2023-11-21T04:58:30;57.20;;;31.97;;
42124;SDS011;27787;44.594;11.046;2023-11-21T05:01:14;59.58;;;29.70;;
42124;SDS011;27787;44.594;11.046;2023-11-21T05:03:58;60.45;;;32.70;;
42124;SDS011;27787;44.594;11.046;2023-11-21T05:06:42;58.72;;;32.65;;
42124;SDS011;27787;44.594;11.046;2023-11-21T05:09:26;55.22;;;30.67;;
42124;SDS011;27787;44.594;11.046;2023-11-21T05:12:12;56.90;;;32.50;;
42124;SDS011;27787;44.594;11.046;2023-11-21T05:14:57;66.30;;;33.15;;
42124;SDS011;27787;44.594;11.046;2023-11-21T05:17:42;61.75;;;34.28;;
42124;SDS011;27787;44.594;11.046;2023-11-21T05:20:27;63.35;;;33.13;;
42124;SDS011;27787;44.594;11.046;2023-11-21T05:23:11;63.00;;;33.88;;
42124;SDS011;27787;44.594;11.046;2023-11-21T05:25:55;60.75;;;32.67;;
42124;SDS011;27787;44.594;11.046;2023-11-21T05:28:40;64.75;;;35.42;;
42124;SDS011;27787;44.594;11.046;2023-11-21T05:31:24;60.63;;;31.90;;
42124;SDS011;27787;44.594;11.046;2023-11-21T05:34:08;67.55;;;34.35;;
42124;SDS011;27787;44.594;11.046;2023-11-21T05:36:52;73.20;;;34.03;;
42124;SDS011;27787;44.594;11.046;2023-11-21T05:39:37;62.60;;;33.10;;
42124;SDS011;27787;44.594;11.046;2023-11-21T05:42:21;63.25;;;32.60;;
42124;SDS011;27787;44.594;11.046;2023-11-21T05:45:07;61.75;;;34.33;;
42124;SDS011;27787;44.594;11.046;2023-11-21T05:47:55;57.47;;;32.42;;
42124;SDS011;27787;44.594;11.046;2023-11-21T05:50:39;68.88;;;36.92;;
42124;SDS011;27787;44.594;11.046;2023-11-21T05:53:23;70.50;;;35.47;;
42124;SDS011;27787;44.594;11.046;2023-11-21T05:56:08;64.57;;;36.05;;
42124;SDS011;27787;44.594;11.046;2023-11-21T05:58:52;68.20;;;36.13;;
42124;SDS011;27787;44.594;11.046;2023-11-21T06:01:36;74.40;;;38.00;;
42124;SDS011;27787;44.594;11.046;2023-11-21T06:04:22;69.53;;;35.97;;
42124;SDS011;27787;44.594;11.046;2023-11-21T06:09:52;67.55;;;34.00;;
42124;SDS011;27787;44.594;11.046;2023-11-21T06:12:36;67.75;;;33.58;;
42124;SDS011;27787;44.594;11.046;2023-11-21T06:15:21;71.57;;;34.97;;
42124;SDS011;27787;44.594;11.046;2023-11-21T06:20:54;64.72;;;32.38;;
42124;SDS011;27787;44.594;11.046;2023-11-21T06:23:39;65.43;;;33.95;;
42124;SDS011;27787;44.594;11.046;2023-11-21T06:26:23;65.03;;;35.15;;
42124;SDS011;27787;44.594;11.046;2023-11-21T06:29:07;71.43;;;38.13;;
42124;SDS011;27787;44.594;11.046;2023-11-21T06:31:51;69.78;;;34.85;;
42124;SDS011;27787;44.594;11.046;2023-11-21T06:34:36;73.10;;;35.53;;
42124;SDS011;27787;44.594;11.046;2023-11-21T06:37:21;69.63;;;36.72;;
42124;SDS011;27787;44.594;11.046;2023-11-21T06:40:07;73.15;;;36.60;;
42124;SDS011;27787;44.594;11.046;2023-11-21T06:42:53;69.32;;;36.90;;
42124;SDS011;27787;44.594;11.046;2023-11-21T06:45:38;71.82;;;38.53;;
42124;SDS011;27787;44.594;11.046;2023-11-21T06:48:22;70.38;;;36.80;;
42124;SDS011;27787;44.594;11.046;2023-11-21T06:51:06;67.60;;;36.63;;
42124;SDS011;27787;44.594;11.046;2023-11-21T06:53:50;76.20;;;38.03;;
42124;SDS011;27787;44.594;11.046;2023-11-21T06:56:34;81.90;;;41.38;;
42124;SDS011;27787;44.594;11.046;2023-11-21T06:59:19;80.77;;;41.57;;
42124;SDS011;27787;44.594;11.046;2023-11-21T07:02:03;74.57;;;40.60;;
42124;SDS011;27787;44.594;11.046;2023-11-21T07:04:50;74.05;;;39.70;;
42124;SDS011;27787;44.594;11.046;2023-11-21T07:07:34;81.15;;;42.13;;
42124;SDS011;27787;44.594;11.046;2023-11-21T07:10:19;73.43;;;39.65;;
42124;SDS011;27787;44.594;11.046;2023-11-21T07:13:04;83.13;;;42.60;;
42124;SDS011;27787;44.594;11.046;2023-11-21T07:15:48;84.22;;;41.05;;
42124;SDS011;27787;44.594;11.046;2023-11-21T07:18:33;80.73;;;42.27;;
42124;SDS011;27787;44.594;11.046;2023-11-21T07:21:17;85.85;;;43.80;;
42124;SDS011;27787;44.594;11.046;2023-11-21T07:24:01;79.85;;;43.17;;
42124;SDS011;27787;44.594;11.046;2023-11-21T07:26:46;85.07;;;43.53;;
42124;SDS011;27787;44.594;11.046;2023-11-21T07:29:31;81.13;;;42.25;;
42124;SDS011;27787;44.594;11.046;2023-11-21T07:32:16;84.90;;;43.90;;
42124;SDS011;27787;44.594;11.046;2023-11-21T07:35:00;83.03;;;43.15;;
42124;SDS011;27787;44.594;11.046;2023-11-21T07:37:45;78.70;;;41.75;;
42124;SDS011;27787;44.594;11.046;2023-11-21T07:40:30;85.38;;;44.92;;
42124;SDS011;27787;44.594;11.046;2023-11-21T07:43:14;88.38;;;44.83;;
42124;SDS011;27787;44.594;11.046;2023-11-21T07:45:59;87.32;;;43.72;;
42124;SDS011;27787;44.594;11.046;2023-11-21T07:48:43;85.10;;;43.65;;
42124;SDS011;27787;44.594;11.046;2023-11-21T07:51:28;90.38;;;44.10;;
42124;SDS011;27787;44.594;11.046;2023-11-21T07:54:12;81.25;;;43.22;;
42124;SDS011;27787;44.594;11.046;2023-11-21T07:56:56;86.43;;;43.75;;
42124;SDS011;27787;44.594;11.046;2023-11-21T07:59:40;85.68;;;44.45;;
42124;SDS011;27787;44.594;11.046;2023-11-21T08:02:24;89.15;;;45.03;;
42124;SDS011;27787;44.594;11.046;2023-11-21T08:05:09;92.57;;;46.53;;
42124;SDS011;27787;44.594;11.046;2023-11-21T08:07:54;85.40;;;44.10;;
42124;SDS011;27787;44.594;11.046;2023-11-21T08:10:39;84.78;;;45.40;;
42124;SDS011;27787;44.594;11.046;2023-11-21T08:13:26;85.78;;;44.70;;
42124;SDS011;27787;44.594;11.046;2023-11-21T08:16:12;91.25;;;46.20;;
42124;SDS011;27787;44.594;11.046;2023-11-21T08:18:57;87.72;;;46.85;;
42124;SDS011;27787;44.594;11.046;2023-11-21T08:21:41;86.70;;;45.55;;
42124;SDS011;27787;44.594;11.046;2023-11-21T08:24:25;90.72;;;45.92;;
42124;SDS011;27787;44.594;11.046;2023-11-21T08:27:10;85.00;;;45.15;;
42124;SDS011;27787;44.594;11.046;2023-11-21T08:29:54;91.63;;;47.63;;
42124;SDS011;27787;44.594;11.046;2023-11-21T08:32:38;91.78;;;46.88;;
42124;SDS011;27787;44.594;11.046;2023-11-21T08:35:22;92.00;;;47.67;;
42124;SDS011;27787;44.594;11.046;2023-11-21T08:38:07;94.25;;;45.35;;
42124;SDS011;27787;44.594;11.046;2023-11-21T08:40:51;92.15;;;47.33;;
42124;SDS011;27787;44.594;11.046;2023-11-21T08:43:35;87.47;;;44.33;;
42124;SDS011;27787;44.594;11.046;2023-11-21T08:46:22;82.82;;;44.42;;
42124;SDS011;27787;44.594;11.046;2023-11-21T08:49:09;87.80;;;42.67;;
42124;SDS011;27787;44.594;11.046;2023-11-21T08:51:53;83.55;;;43.35;;
42124;SDS011;27787;44.594;11.046;2023-11-21T08:54:39;82.68;;;42.97;;
42124;SDS011;27787;44.594;11.046;2023-11-21T08:57:23;87.82;;;42.85;;
42124;SDS011;27787;44.594;11.046;2023-11-21T09:00:07;86.85;;;42.60;;
42124;SDS011;27787;44.594;11.046;2023-11-21T09:03:03;80.05;;;43.13;;
42124;SDS011;27787;44.594;11.046;2023-11-21T09:05:52;89.65;;;43.90;;
42124;SDS011;27787;44.594;11.046;2023-11-21T09:08:36;85.55;;;43.53;;
42124;SDS011;27787;44.594;11.046;2023-11-21T09:11:21;88.25;;;44.90;;
42124;SDS011;27787;44.594;11.046;2023-11-21T09:14:05;87.00;;;42.88;;
42124;SDS011;27787;44.594;11.046;2023-11-21T09:16:49;87.05;;;44.35;;
42124;SDS011;27787;44.594;11.046;2023-11-21T09:19:34;85.30;;;44.00;;
42124;SDS011;27787;44.594;11.046;2023-11-21T09:22:19;82.75;;;43.70;;
42124;SDS011;27787;44.594;11.046;2023-11-21T09:25:03;79.53;;;43.25;;
42124;SDS011;27787;44.594;11.046;2023-11-21T09:27:52;78.55;;;41.60;;
42124;SDS011;27787;44.594;11.046;2023-11-21T09:30:36;86.82;;;41.55;;
42124;SDS011;27787;44.594;11.046;2023-11-21T09:33:20;81.68;;;41.47;;
42124;SDS011;27787;44.594;11.046;2023-11-21T09:36:10;83.70;;;41.10;;
42124;SDS011;27787;44.594;11.046;2023-11-21T09:38:55;82.55;;;41.35;;
42124;SDS011;27787;44.594;11.046;2023-11-21T09:41:43;72.63;;;39.88;;
42124;SDS011;27787;44.594;11.046;2023-11-21T09:44:38;74.82;;;37.55;;
42124;SDS011;27787;44.594;11.046;2023-11-21T09:47:48;73.32;;;38.03;;
42124;SDS011;27787;44.594;11.046;2023-11-21T09:50:33;74.00;;;39.08;;
42124;SDS011;27787;44.594;11.046;2023-11-21T09:56:08;75.18;;;36.97;;
42124;SDS011;27787;44.594;11.046;2023-11-21T09:58:54;76.18;;;36.65;;
42124;SDS011;27787;44.594;11.046;2023-11-21T10:01:41;75.65;;;37.60;;
42124;SDS011;27787;44.594;11.046;2023-11-21T10:04:27;69.18;;;35.35;;
42124;SDS011;27787;44.594;11.046;2023-11-21T10:07:13;72.28;;;35.50;;
42124;SDS011;27787;44.594;11.046;2023-11-21T10:10:01;68.93;;;35.22;;
42124;SDS011;27787;44.594;11.046;2023-11-21T10:12:47;75.63;;;34.83;;
42124;SDS011;27787;44.594;11.046;2023-11-21T10:15:34;70.88;;;34.13;;
42124;SDS011;27787;44.594;11.046;2023-11-21T10:18:18;67.85;;;34.53;;
42124;SDS011;27787;44.594;11.046;2023-11-21T10:21:03;68.38;;;35.20;;
42124;SDS011;27787;44.594;11.046;2023-11-21T10:23:47;74.60;;;36.55;;
42124;SDS011;27787;44.594;11.046;2023-11-21T10:26:32;69.30;;;36.97;;
42124;SDS011;27787;44.594;11.046;2023-11-21T10:29:17;68.15;;;35.72;;
42124;SDS011;27787;44.594;11.046;2023-11-21T10:32:05;62.38;;;33.45;;
42124;SDS011;27787;44.594;11.046;2023-11-21T10:34:56;72.40;;;34.42;;
42124;SDS011;27787;44.594;11.046;2023-11-21T10:37:41;70.25;;;33.67;;
42124;SDS011;27787;44.594;11.046;2023-11-21T10:40:27;61.05;;;32.80;;
42124;SDS011;27787;44.594;11.046;2023-11-21T10:43:13;71.35;;;35.33;;
42124;SDS011;27787;44.594;11.046;2023-11-21T10:45:58;69.13;;;33.70;;
42124;SDS011;27787;44.594;11.046;2023-11-21T10:48:51;68.43;;;32.88;;
42124;SDS011;27787;44.594;11.046;2023-11-21T10:51:37;63.42;;;31.70;;
42124;SDS011;27787;44.594;11.046;2023-11-21T10:54:27;60.88;;;29.88;;
42124;SDS011;27787;44.594;11.046;2023-11-21T10:57:10;57.33;;;29.00;;
42124;SDS011;27787;44.594;11.046;2023-11-21T10:59:58;53.95;;;29.77;;
42124;SDS011;27787;44.594;11.046;2023-11-21T11:02:43;63.25;;;31.65;;
42124;SDS011;27787;44.594;11.046;2023-11-21T11:05:31;68.65;;;32.97;;
42124;SDS011;27787;44.594;11.046;2023-11-21T11:08:20;65.57;;;30.80;;
42124;SDS011;27787;44.594;11.046;2023-11-21T11:11:09;63.72;;;31.58;;
42124;SDS011;27787;44.594;11.046;2023-11-21T11:13:53;66.30;;;31.60;;
42124;SDS011;27787;44.594;11.046;2023-11-21T11:16:39;57.35;;;28.85;;
42124;SDS011;27787;44.594;11.046;2023-11-21T11:19:26;62.85;;;30.35;;
42124;SDS011;27787;44.594;11.046;2023-11-21T11:28:27;60.97;;;28.98;;
42124;SDS011;27787;44.594;11.046;2023-11-21T11:34:42;52.65;;;26.58;;
42124;SDS011;27787;44.594;11.046;2023-11-21T11:37:31;58.22;;;28.25;;
42124;SDS011;27787;44.594;11.046;2023-11-21T11:40:15;60.55;;;28.55;;
42124;SDS011;27787;44.594;11.046;2023-11-21T11:43:01;60.38;;;30.17;;
42124;SDS011;27787;44.594;11.046;2023-11-21T11:45:48;57.92;;;27.45;;
42124;SDS011;27787;44.594;11.046;2023-11-21T11:48:39;60.60;;;28.23;;
42124;SDS011;27787;44.594;11.046;2023-11-21T11:51:23;57.60;;;28.08;;
42124;SDS011;27787;44.594;11.046;2023-11-21T11:54:07;62.58;;;29.98;;
42124;SDS011;27787;44.594;11.046;2023-11-21T11:56:51;60.45;;;29.30;;
42124;SDS011;27787;44.594;11.046;2023-11-21T12:00:02;61.50;;;29.63;;
42124;SDS011;27787;44.594;11.046;2023-11-21T12:03:00;55.35;;;27.67;;
42124;SDS011;27787;44.594;11.046;2023-11-21T12:05:48;59.90;;;29.02;;
42124;SDS011;27787;44.594;11.046;2023-11-21T12:08:36;60.58;;;30.60;;
42124;SDS011;27787;44.594;11.046;2023-11-21T12:11:21;58.15;;;29.67;;
42124;SDS011;27787;44.594;11.046;2023-11-21T12:14:14;58.13;;;28.45;;
42124;SDS011;27787;44.594;11.046;2023-11-21T12:16:59;55.33;;;28.15;;
42124;SDS011;27787;44.594;11.046;2023-11-21T12:19:44;58.30;;;29.70;;
42124;SDS011;27787;44.594;11.046;2023-11-21T12:22:28;67.00;;;29.38;;
42124;SDS011;27787;44.594;11.046;2023-11-21T12:25:13;60.45;;;29.02;;
42124;SDS011;27787;44.594;11.046;2023-11-21T12:27:59;53.90;;;28.20;;
42124;SDS011;27787;44.594;11.046;2023-11-21T12:30:45;58.28;;;28.90;;
42124;SDS011;27787;44.594;11.046;2023-11-21T12:33:29;57.10;;;28.15;;
42124;SDS011;27787;44.594;11.046;2023-11-21T12:36:13;58.90;;;27.35;;
42124;SDS011;27787;44.594;11.046;2023-11-21T12:38:58;62.05;;;29.85;;
42124;SDS011;27787;44.594;11.046;2023-11-21T12:41:41;58.72;;;29.52;;
42124;SDS011;27787;44.594;11.046;2023-11-21T12:44:26;60.97;;;28.98;;
42124;SDS011;27787;44.594;11.046;2023-11-21T12:47:10;65.32;;;29.67;;
42124;SDS011;27787;44.594;11.046;2023-11-21T12:49:58;62.60;;;30.67;;
42124;SDS011;27787;44.594;11.046;2023-11-21T12:52:45;54.55;;;28.25;;
42124;SDS011;27787;44.594;11.046;2023-11-21T12:55:33;56.95;;;28.65;;
42124;SDS011;27787;44.594;11.046;2023-11-21T12:58:21;54.70;;;28.13;;
42124;SDS011;27787;44.594;11.046;2023-11-21T13:01:09;57.45;;;28.77;;
42124;SDS011;27787;44.594;11.046;2023-11-21T13:03:56;63.50;;;28.65;;
42124;SDS011;27787;44.594;11.046;2023-11-21T13:06:42;57.40;;;29.00;;
42124;SDS011;27787;44.594;11.046;2023-11-21T13:09:26;64.85;;;30.23;;
42124;SDS011;27787;44.594;11.046;2023-11-21T13:12:11;64.18;;;29.33;;
42124;SDS011;27787;44.594;11.046;2023-11-21T13:14:56;64.05;;;29.45;;
42124;SDS011;27787;44.594;11.046;2023-11-21T13:17:40;61.33;;;29.45;;
42124;SDS011;27787;44.594;11.046;2023-11-21T13:20:25;62.13;;;30.35;;
42124;SDS011;27787;44.594;11.046;2023-11-21T13:23:10;59.58;;;29.67;;
42124;SDS011;27787;44.594;11.046;2023-11-21T13:25:59;61.75;;;30.40;;
42124;SDS011;27787;44.594;11.046;2023-11-21T13:28:48;57.80;;;28.55;;
42124;SDS011;27787;44.594;11.046;2023-11-21T13:31:32;58.63;;;28.73;;
42124;SDS011;27787;44.594;11.046;2023-11-21T13:34:20;59.70;;;29.73;;
42124;SDS011;27787;44.594;11.046;2023-11-21T13:37:06;70.57;;;30.00;;
42124;SDS011;27787;44.594;11.046;2023-11-21T13:39:51;64.22;;;31.25;;
42124;SDS011;27787;44.594;11.046;2023-11-21T13:42:36;57.92;;;30.20;;
42124;SDS011;27787;44.594;11.046;2023-11-21T13:45:21;59.50;;;30.25;;
42124;SDS011;27787;44.594;11.046;2023-11-21T13:48:07;57.05;;;28.83;;
42124;SDS011;27787;44.594;11.046;2023-11-21T13:50:54;64.25;;;31.45;;
42124;SDS011;27787;44.594;11.046;2023-11-21T13:53:57;58.15;;;28.48;;
42124;SDS011;27787;44.594;11.046;2023-11-21T13:56:41;59.03;;;30.23;;
42124;SDS011;27787;44.594;11.046;2023-11-21T13:59:28;58.35;;;30.73;;
42124;SDS011;27787;44.594;11.046;2023-11-21T14:02:14;58.10;;;30.13;;
42124;SDS011;27787;44.594;11.046;2023-11-21T14:05:02;63.00;;;31.10;;
42124;SDS011;27787;44.594;11.046;2023-11-21T14:07:53;63.28;;;29.60;;
42124;SDS011;27787;44.594;11.046;2023-11-21T14:10:37;57.97;;;30.52;;
42124;SDS011;27787;44.594;11.046;2023-11-21T14:13:27;64.80;;;32.03;;
42124;SDS011;27787;44.594;11.046;2023-11-21T14:16:11;62.42;;;29.00;;
42124;SDS011;27787;44.594;11.046;2023-11-21T14:18:55;67.78;;;31.58;;
42124;SDS011;27787;44.594;11.046;2023-11-21T14:21:45;64.88;;;31.45;;
42124;SDS011;27787;44.594;11.046;2023-11-21T14:24:31;65.50;;;31.35;;
42124;SDS011;27787;44.594;11.046;2023-11-21T14:27:16;68.85;;;31.88;;
42124;SDS011;27787;44.594;11.046;2023-11-21T14:30:00;62.13;;;30.20;;
42124;SDS011;27787;44.594;11.046;2023-11-21T14:32:44;64.93;;;30.90;;
42124;SDS011;27787;44.594;11.046;2023-11-21T14:35:29;58.70;;;30.33;;
42124;SDS011;27787;44.594;11.046;2023-11-21T14:38:16;59.33;;;29.95;;
42124;SDS011;27787;44.594;11.046;2023-11-21T14:41:00;65.30;;;30.08;;
42124;SDS011;27787;44.594;11.046;2023-11-21T14:43:44;62.72;;;31.25;;
42124;SDS011;27787;44.594;11.046;2023-11-21T14:46:31;62.42;;;30.00;;
42124;SDS011;27787;44.594;11.046;2023-11-21T14:49:15;66.85;;;30.75;;
42124;SDS011;27787;44.594;11.046;2023-11-21T14:52:03;60.55;;;31.80;;
42124;SDS011;27787;44.594;11.046;2023-11-21T14:54:50;62.33;;;30.20;;
42124;SDS011;27787;44.594;11.046;2023-11-21T14:57:44;66.50;;;29.63;;
42124;SDS011;27787;44.594;11.046;2023-11-21T15:00:33;58.92;;;29.85;;
42124;SDS011;27787;44.594;11.046;2023-11-21T15:03:19;63.10;;;30.15;;
42124;SDS011;27787;44.594;11.046;2023-11-21T15:06:15;57.08;;;28.02;;
42124;SDS011;27787;44.594;11.046;2023-11-21T15:09:03;56.15;;;28.00;;
42124;SDS011;27787;44.594;11.046;2023-11-21T15:11:50;60.83;;;29.15;;
42124;SDS011;27787;44.594;11.046;2023-11-21T15:14:49;55.17;;;27.77;;
42124;SDS011;27787;44.594;11.046;2023-11-21T15:17:40;64.50;;;28.80;;
42124;SDS011;27787;44.594;11.046;2023-11-21T15:20:26;58.63;;;28.17;;
42124;SDS011;27787;44.594;11.046;2023-11-21T15:23:10;58.28;;;29.85;;
42124;SDS011;27787;44.594;11.046;2023-11-21T15:25:56;65.47;;;29.80;;
42124;SDS011;27787;44.594;11.046;2023-11-21T15:28:41;64.10;;;29.53;;
42124;SDS011;27787;44.594;11.046;2023-11-21T15:31:25;61.58;;;27.80;;
42124;SDS011;27787;44.594;11.046;2023-11-21T15:34:09;64.60;;;28.63;;
42124;SDS011;27787;44.594;11.046;2023-11-21T15:36:53;56.08;;;29.38;;
42124;SDS011;27787;44.594;11.046;2023-11-21T15:39:41;58.00;;;26.63;;
42124;SDS011;27787;44.594;11.046;2023-11-21T15:42:25;55.03;;;26.70;;
42124;SDS011;27787;44.594;11.046;2023-11-21T15:45:10;57.67;;;27.25;;
42124;SDS011;27787;44.594;11.046;2023-11-21T15:47:54;49.13;;;26.00;;
42124;SDS011;27787;44.594;11.046;2023-11-21T15:50:41;54.70;;;26.73;;
42124;SDS011;27787;44.594;11.046;2023-11-21T15:53:25;53.75;;;28.33;;
42124;SDS011;27787;44.594;11.046;2023-11-21T15:56:09;55.22;;;28.65;;
42124;SDS011;27787;44.594;11.046;2023-11-21T15:58:56;62.03;;;30.52;;
42124;SDS011;27787;44.594;11.046;2023-11-21T16:01:40;67.15;;;32.25;;
42124;SDS011;27787;44.594;11.046;2023-11-21T16:04:32;62.90;;;30.98;;
42124;SDS011;27787;44.594;11.046;2023-11-21T16:07:16;61.45;;;30.45;;
42124;SDS011;27787;44.594;11.046;2023-11-21T16:10:01;72.40;;;34.53;;
42124;SDS011;27787;44.594;11.046;2023-11-21T16:12:48;66.40;;;30.77;;